createdAt,value
2022-08-28T00:00:32.684Z,16.30
2022-08-28T00:03:00.568Z,16.30
2022-08-28T00:05:31.073Z,16.30
2022-08-28T00:07:59.979Z,16.30
2022-08-28T00:10:28.316Z,16.30
2022-08-28T00:12:57.485Z,16.30
2022-08-28T00:15:35.064Z,16.40
2022-08-28T00:18:04.116Z,16.40
2022-08-28T00:20:33.764Z,16.30
2022-08-28T00:23:02.009Z,16.30
2022-08-28T00:25:30.943Z,16.30
2022-08-28T00:28:05.177Z,16.30
2022-08-28T00:30:42.640Z,16.40
2022-08-28T00:33:14.857Z,16.30
2022-08-28T00:35:43.383Z,16.30
2022-08-28T00:38:12.808Z,16.30
2022-08-28T00:40:44.528Z,16.30
2022-08-28T00:43:41.766Z,16.30
2022-08-28T00:46:19.748Z,16.30
2022-08-28T00:48:48.186Z,16.20
2022-08-28T00:51:37.973Z,16.20
2022-08-28T00:54:07.918Z,16.20
2022-08-28T00:56:38.068Z,16.10
2022-08-28T00:59:09.872Z,16.10
2022-08-28T01:01:39.306Z,16.10
2022-08-28T01:04:07.432Z,16.10
2022-08-28T01:06:36.605Z,16.10
2022-08-28T01:09:05.702Z,16.00
2022-08-28T01:11:33.728Z,15.90
2022-08-28T01:14:03.068Z,15.90
2022-08-28T01:16:33.964Z,15.90
2022-08-28T01:19:07.882Z,15.90
2022-08-28T01:21:47.168Z,15.80
2022-08-28T01:24:18.179Z,15.80
2022-08-28T01:26:46.841Z,15.70
2022-08-28T01:29:14.734Z,15.70
2022-08-28T01:31:43.199Z,15.70
2022-08-28T01:34:13.964Z,15.70
2022-08-28T01:36:42.246Z,15.60
2022-08-28T01:39:18.033Z,15.60
2022-08-28T01:41:48.016Z,15.60
2022-08-28T01:44:18.192Z,15.60
2022-08-28T01:46:46.598Z,15.60
2022-08-28T01:49:14.753Z,15.50
2022-08-28T01:51:43.140Z,15.60
2022-08-28T01:54:11.876Z,15.60
2022-08-28T01:56:42.176Z,15.60
2022-08-28T01:59:12.245Z,15.60
2022-08-28T02:01:40.336Z,15.60
2022-08-28T02:04:08.013Z,15.60
2022-08-28T02:06:36.561Z,15.50
2022-08-28T02:09:13.528Z,15.40
2022-08-28T02:11:46.542Z,15.40
2022-08-28T02:14:15.221Z,15.30
2022-08-28T02:16:42.751Z,15.20
2022-08-28T02:19:10.373Z,15.10
2022-08-28T02:21:38.105Z,15.10
2022-08-28T02:24:05.948Z,15.00
2022-08-28T02:26:33.570Z,14.90
2022-08-28T02:29:01.353Z,14.90
2022-08-28T02:31:29.153Z,14.80
2022-08-28T02:33:56.800Z,14.80
2022-08-28T02:36:24.614Z,14.70
2022-08-28T02:38:56.989Z,14.70
2022-08-28T02:41:25.472Z,14.60
2022-08-28T02:43:53.320Z,14.50
2022-08-28T02:46:20.899Z,14.50
2022-08-28T02:48:48.483Z,14.50
2022-08-28T02:51:16.125Z,14.40
2022-08-28T02:53:43.793Z,14.30
2022-08-28T02:56:12.012Z,14.20
2022-08-28T02:58:40.735Z,14.20
2022-08-28T03:01:11.275Z,14.10
2022-08-28T03:03:41.451Z,14.10
2022-08-28T03:06:12.594Z,14.00
2022-08-28T03:08:42.078Z,14.00
2022-08-28T03:11:10.061Z,14.00
2022-08-28T03:13:37.809Z,14.00
2022-08-28T03:16:05.879Z,13.90
2022-08-28T03:18:33.540Z,13.90
2022-08-28T03:21:01.172Z,13.80
2022-08-28T03:23:29.189Z,13.80
2022-08-28T03:25:59.834Z,13.80
2022-08-28T03:28:30.337Z,13.70
2022-08-28T03:30:58.113Z,13.70
2022-08-28T03:33:26.890Z,13.70
2022-08-28T03:35:55.615Z,13.70
2022-08-28T03:38:25.288Z,13.60
2022-08-28T03:40:53.765Z,13.60
2022-08-28T03:43:24.509Z,13.50
2022-08-28T03:45:58.958Z,13.50
2022-08-28T03:48:28.941Z,13.10
2022-08-28T03:50:56.836Z,13.50
2022-08-28T03:53:27.170Z,13.50
2022-08-28T03:55:56.215Z,13.50
2022-08-28T03:58:24.589Z,13.50
2022-08-28T04:00:52.653Z,13.50
2022-08-28T04:03:20.718Z,13.50
2022-08-28T04:05:48.323Z,13.40
2022-08-28T04:08:17.517Z,13.30
2022-08-28T04:10:45.948Z,13.30
2022-08-28T04:13:14.754Z,13.20
2022-08-28T04:15:42.505Z,13.20
2022-08-28T04:18:10.803Z,13.20
2022-08-28T04:20:38.796Z,13.20
2022-08-28T04:23:08.464Z,13.20
2022-08-28T04:25:36.031Z,13.20
2022-08-28T04:28:04.520Z,13.20
2022-08-28T04:30:32.102Z,13.20
2022-08-28T04:32:59.951Z,13.20
2022-08-28T04:35:27.704Z,13.20
2022-08-28T04:37:58.752Z,13.20
2022-08-28T04:40:26.769Z,13.20
2022-08-28T04:42:54.451Z,13.10
2022-08-28T04:45:22.130Z,13.10
2022-08-28T04:47:49.671Z,13.10
2022-08-28T04:50:17.297Z,13.00
2022-08-28T04:52:44.821Z,13.00
2022-08-28T04:55:12.444Z,13.00
2022-08-28T04:57:39.950Z,13.00
2022-08-28T05:00:10.201Z,13.10
2022-08-28T05:02:38.723Z,13.10
2022-08-28T05:05:06.591Z,13.00
2022-08-28T05:07:34.673Z,13.10
2022-08-28T05:10:02.368Z,13.00
2022-08-28T05:12:30.636Z,13.00
2022-08-28T05:14:58.198Z,13.10
2022-08-28T05:17:25.757Z,13.10
2022-08-28T05:19:54.332Z,13.10
2022-08-28T05:22:21.860Z,13.20
2022-08-28T05:24:49.517Z,13.30
2022-08-28T05:27:17.013Z,13.30
2022-08-28T05:29:44.550Z,13.40
2022-08-28T05:32:12.154Z,13.40
2022-08-28T05:34:39.682Z,13.40
2022-08-28T05:37:08.897Z,13.40
2022-08-28T05:39:36.465Z,13.40
2022-08-28T05:42:04.317Z,13.40
2022-08-28T05:44:31.921Z,13.50
2022-08-28T05:46:59.519Z,13.50
2022-08-28T05:49:28.205Z,13.60
2022-08-28T05:51:55.770Z,13.60
2022-08-28T05:54:23.332Z,13.70
2022-08-28T05:56:50.861Z,13.70
2022-08-28T05:59:18.512Z,13.80
2022-08-28T06:01:48.672Z,13.90
2022-08-28T06:04:24.610Z,14.00
2022-08-28T06:06:52.778Z,14.00
2022-08-28T06:09:28.764Z,14.10
2022-08-28T06:12:02.822Z,14.20
2022-08-28T06:14:31.479Z,14.40
2022-08-28T06:17:00.589Z,14.40
2022-08-28T06:19:30.383Z,14.50
2022-08-28T06:22:00.900Z,14.60
2022-08-28T06:24:29.514Z,14.70
2022-08-28T06:26:59.098Z,14.80
2022-08-28T06:29:28.160Z,14.90
2022-08-28T06:31:59.155Z,15.00
2022-08-28T06:34:28.068Z,15.10
2022-08-28T06:36:55.885Z,15.20
2022-08-28T06:39:23.711Z,15.30
2022-08-28T06:41:51.371Z,15.30
2022-08-28T06:44:20.543Z,15.40
2022-08-28T06:46:50.386Z,15.50
2022-08-28T06:49:18.331Z,15.60
2022-08-28T06:51:45.945Z,15.70
2022-08-28T06:54:18.436Z,15.70
2022-08-28T06:56:50.106Z,15.80
2022-08-28T06:59:17.691Z,15.90
2022-08-28T07:01:45.381Z,15.90
2022-08-28T07:04:14.691Z,15.90
2022-08-28T07:06:46.915Z,16.00
2022-08-28T07:09:15.429Z,16.00
2022-08-28T07:11:48.746Z,16.10
2022-08-28T07:14:16.796Z,16.10
2022-08-28T07:16:44.441Z,16.10
2022-08-28T07:19:13.616Z,16.10
2022-08-28T07:21:43.733Z,16.20
2022-08-28T07:24:14.679Z,16.30
2022-08-28T07:26:43.661Z,16.40
2022-08-28T07:29:11.893Z,16.40
2022-08-28T07:31:44.851Z,16.50
2022-08-28T07:34:14.239Z,16.60
2022-08-28T07:36:42.458Z,16.60
2022-08-28T07:39:12.240Z,16.70
2022-08-28T07:41:42.687Z,16.80
2022-08-28T07:44:31.426Z,16.90
2022-08-28T07:47:04.038Z,16.90
2022-08-28T07:49:34.008Z,17.00
2022-08-28T07:52:02.356Z,17.20
2022-08-28T07:54:29.984Z,17.30
2022-08-28T07:56:57.585Z,17.50
2022-08-28T07:59:25.180Z,17.60
2022-08-28T08:01:53.866Z,17.80
2022-08-28T08:04:23.412Z,18.00
2022-08-28T08:06:57.550Z,18.10
2022-08-28T08:09:27.227Z,18.30
2022-08-28T08:11:56.655Z,18.30
2022-08-28T08:14:25.481Z,18.50
2022-08-28T08:16:53.599Z,18.60
2022-08-28T08:19:21.412Z,18.70
2022-08-28T08:21:55.161Z,18.80
2022-08-28T08:24:26.593Z,19.00
2022-08-28T08:26:58.762Z,19.10
2022-08-28T08:29:31.479Z,19.20
2022-08-28T08:32:06.252Z,19.20
2022-08-28T08:34:42.709Z,19.20
2022-08-28T08:37:12.780Z,19.20
2022-08-28T08:39:42.140Z,19.30
2022-08-28T08:42:33.984Z,19.40
2022-08-28T08:45:05.330Z,19.70
2022-08-28T08:47:36.721Z,20.00
2022-08-28T08:50:35.461Z,20.20
2022-08-28T08:53:09.325Z,20.60
2022-08-28T08:55:52.848Z,20.80
2022-08-28T08:58:24.692Z,21.10
2022-08-28T09:01:23.607Z,21.20
2022-08-28T09:04:00.616Z,21.30
2022-08-28T09:06:55.387Z,21.50
2022-08-28T09:09:43.660Z,21.70
2022-08-28T09:12:31.578Z,21.90
2022-08-28T09:15:14.290Z,22.10
2022-08-28T09:17:52.744Z,22.20
2022-08-28T09:20:32.389Z,22.40
2022-08-28T09:23:02.053Z,22.60
2022-08-28T09:25:51.377Z,22.80
2022-08-28T09:28:32.506Z,23.00
2022-08-28T09:31:20.344Z,23.30
2022-08-28T09:33:51.324Z,23.60
2022-08-28T09:36:23.789Z,23.90
2022-08-28T09:39:38.704Z,24.00
2022-08-28T09:42:40.310Z,24.10
2022-08-28T09:45:21.234Z,24.20
2022-08-28T09:47:58.626Z,24.30
2022-08-28T09:50:31.840Z,24.60
2022-08-28T09:53:21.559Z,24.90
2022-08-28T09:55:55.903Z,25.30
2022-08-28T09:58:37.388Z,25.60
2022-08-28T10:01:19.939Z,25.70
2022-08-28T10:04:08.182Z,25.70
2022-08-28T10:06:37.252Z,25.90
2022-08-28T10:09:10.859Z,26.10
2022-08-28T10:12:11.143Z,26.40
2022-08-28T10:15:07.824Z,26.80
2022-08-28T10:18:18.575Z,26.90
2022-08-28T10:21:05.497Z,27.00
2022-08-28T10:23:58.600Z,27.00
2022-08-28T10:26:51.665Z,27.00
2022-08-28T10:29:38.117Z,26.90
2022-08-28T10:32:11.734Z,27.10
2022-08-28T10:34:51.404Z,27.30
2022-08-28T10:37:57.885Z,27.60
2022-08-28T10:40:36.702Z,28.00
2022-08-28T10:43:15.376Z,28.40
2022-08-28T10:45:43.180Z,28.80
2022-08-28T10:48:19.885Z,29.10
2022-08-28T10:51:01.142Z,29.40
2022-08-28T10:53:35.350Z,29.70
2022-08-28T10:56:15.884Z,30.00
2022-08-28T10:58:45.394Z,30.10
2022-08-28T11:01:32.992Z,30.00
2022-08-28T11:04:06.841Z,30.10
2022-08-28T11:06:41.692Z,30.40
2022-08-28T11:09:24.821Z,30.70
2022-08-28T11:12:02.600Z,30.90
2022-08-28T11:14:39.329Z,31.20
2022-08-28T11:17:22.026Z,31.40
2022-08-28T11:20:07.521Z,31.20
2022-08-28T11:22:41.305Z,30.90
2022-08-28T11:25:57.573Z,30.90
2022-08-28T11:28:27.616Z,31.10
2022-08-28T11:30:58.240Z,31.40
2022-08-28T11:33:41.052Z,31.60
2022-08-28T11:36:20.457Z,31.70
2022-08-28T11:38:54.046Z,31.80
2022-08-28T11:41:39.414Z,32.10
2022-08-28T11:44:09.735Z,32.30
2022-08-28T11:46:39.981Z,32.40
2022-08-28T11:49:26.464Z,32.50
2022-08-28T11:52:21.850Z,32.60
2022-08-28T11:55:12.442Z,32.80
2022-08-28T11:57:52.231Z,32.90
2022-08-28T12:00:38.443Z,32.60
2022-08-28T12:03:15.476Z,32.50
2022-08-28T12:05:49.719Z,32.30
2022-08-28T12:08:44.993Z,32.20
2022-08-28T12:11:40.325Z,32.30
2022-08-28T12:14:14.982Z,32.40
2022-08-28T12:17:01.323Z,32.50
2022-08-28T12:19:52.511Z,32.70
2022-08-28T12:22:39.301Z,32.60
2022-08-28T12:25:23.099Z,32.60
2022-08-28T12:27:52.496Z,32.40
2022-08-28T12:30:29.662Z,32.20
2022-08-28T12:33:07.090Z,32.10
2022-08-28T12:35:34.968Z,32.30
2022-08-28T12:38:05.923Z,32.50
2022-08-28T12:40:50.370Z,32.70
2022-08-28T12:43:35.707Z,33.00
2022-08-28T12:46:19.489Z,33.00
2022-08-28T12:48:52.092Z,33.10
2022-08-28T12:51:28.141Z,33.10
2022-08-28T12:54:01.450Z,32.90
2022-08-28T12:56:36.164Z,32.70
2022-08-28T12:59:22.680Z,32.40
2022-08-28T13:02:01.182Z,31.70
2022-08-28T13:04:34.729Z,30.80
2022-08-28T13:07:17.305Z,30.30
2022-08-28T13:09:52.142Z,29.90
2022-08-28T13:12:55.203Z,29.50
2022-08-28T13:15:50.796Z,29.20
2022-08-28T13:18:40.165Z,28.70
2022-08-28T13:21:33.409Z,28.40
2022-08-28T13:24:20.529Z,28.20
2022-08-28T13:27:08.193Z,28.10
2022-08-28T13:29:36.739Z,28.10
2022-08-28T13:32:08.849Z,28.00
2022-08-28T13:34:39.016Z,27.80
2022-08-28T13:37:46.987Z,27.60
2022-08-28T13:40:44.438Z,27.30
2022-08-28T13:43:08.231Z,27.00
2022-08-28T13:45:44.894Z,26.80
2022-08-28T13:48:14.718Z,26.60
2022-08-28T13:50:46.908Z,26.50
2022-08-28T13:53:16.952Z,26.40
2022-08-28T13:55:45.038Z,26.30
2022-08-28T13:58:14.049Z,26.10
2022-08-28T14:00:45.620Z,25.90
2022-08-28T14:03:31.930Z,25.80
2022-08-28T14:05:59.777Z,25.60
2022-08-28T14:08:27.430Z,25.60
2022-08-28T14:10:55.369Z,25.40
2022-08-28T14:13:26.828Z,25.30
2022-08-28T14:15:56.526Z,25.20
2022-08-28T14:18:25.821Z,25.20
2022-08-28T14:20:53.424Z,25.10
2022-08-28T14:23:21.053Z,25.00
2022-08-28T14:25:49.338Z,24.90
2022-08-28T14:28:18.025Z,24.80
2022-08-28T14:30:48.478Z,24.80
2022-08-28T14:33:19.000Z,24.70
2022-08-28T14:35:49.255Z,24.60
2022-08-28T14:38:17.309Z,24.70
2022-08-28T14:40:45.365Z,24.60
2022-08-28T14:43:14.449Z,24.60
2022-08-28T14:45:47.711Z,24.60
2022-08-28T14:48:17.662Z,24.50
2022-08-28T14:50:48.323Z,24.60
2022-08-28T14:53:17.038Z,24.80
2022-08-28T14:55:47.819Z,24.80
2022-08-28T14:58:17.231Z,24.80
2022-08-28T15:00:48.062Z,24.90
2022-08-28T15:03:17.098Z,25.00
2022-08-28T15:05:45.418Z,25.20
2022-08-28T15:08:16.791Z,25.30
2022-08-28T15:10:44.926Z,25.50
2022-08-28T15:13:13.302Z,25.80
2022-08-28T15:15:43.040Z,26.60
2022-08-28T15:18:11.600Z,27.50
2022-08-28T15:20:41.943Z,28.20
2022-08-28T15:23:10.773Z,28.90
2022-08-28T15:25:38.644Z,29.60
2022-08-28T15:28:06.982Z,30.20
2022-08-28T15:30:35.475Z,30.60
2022-08-28T15:33:03.154Z,30.70
2022-08-28T15:35:30.934Z,30.60
2022-08-28T15:37:58.494Z,30.50
2022-08-28T15:40:45.072Z,30.30
2022-08-28T15:43:12.808Z,30.00
2022-08-28T15:45:41.231Z,29.50
2022-08-28T15:48:10.904Z,29.00
2022-08-28T15:50:40.321Z,28.70
2022-08-28T15:53:09.523Z,28.40
2022-08-28T15:55:37.009Z,28.20
2022-08-28T15:58:13.756Z,28.00
2022-08-28T16:00:42.494Z,27.80
2022-08-28T16:03:10.275Z,27.50
2022-08-28T16:05:40.741Z,27.20
2022-08-28T16:08:10.501Z,27.10
2022-08-28T16:10:38.640Z,27.10
2022-08-28T16:13:06.812Z,27.30
2022-08-28T16:15:35.001Z,27.40
2022-08-28T16:18:02.653Z,27.60
2022-08-28T16:20:30.234Z,27.90
2022-08-28T16:22:58.227Z,28.00
2022-08-28T16:25:25.898Z,28.10
2022-08-28T16:27:53.446Z,28.00
2022-08-28T16:30:23.886Z,27.90
2022-08-28T16:32:52.268Z,27.70
2022-08-28T16:35:22.225Z,27.50
2022-08-28T16:37:50.358Z,27.10
2022-08-28T16:40:18.425Z,26.70
2022-08-28T16:42:51.930Z,26.50
2022-08-28T16:45:20.409Z,26.30
2022-08-28T16:47:49.220Z,26.00
2022-08-28T16:50:17.836Z,25.70
2022-08-28T16:52:48.751Z,25.50
2022-08-28T16:55:16.491Z,25.30
2022-08-28T16:57:45.114Z,25.10
2022-08-28T17:00:13.741Z,24.90
2022-08-28T17:02:42.365Z,24.70
2022-08-28T17:05:12.418Z,24.50
2022-08-28T17:07:40.280Z,24.40
2022-08-28T17:10:12.183Z,24.20
2022-08-28T17:12:40.797Z,24.10
2022-08-28T17:15:09.260Z,24.00
2022-08-28T17:17:39.907Z,23.80
2022-08-28T17:20:29.112Z,23.70
2022-08-28T17:22:57.229Z,23.50
2022-08-28T17:25:25.922Z,23.40
2022-08-28T17:27:53.695Z,23.30
2022-08-28T17:30:21.742Z,23.20
2022-08-28T17:32:51.392Z,23.10
2022-08-28T17:35:19.461Z,23.00
2022-08-28T17:37:47.437Z,23.00
2022-08-28T17:40:17.350Z,22.90
2022-08-28T17:42:47.989Z,22.80
2022-08-28T17:45:15.810Z,22.70
2022-08-28T17:47:43.641Z,22.60
2022-08-28T17:50:12.108Z,22.60
2022-08-28T17:52:40.008Z,22.50
2022-08-28T17:55:08.069Z,22.50
2022-08-28T17:57:35.831Z,22.50
2022-08-28T18:00:08.002Z,22.50
2022-08-28T18:02:40.042Z,22.50
2022-08-28T18:05:08.756Z,22.50
2022-08-28T18:07:36.605Z,22.50
2022-08-28T18:10:06.849Z,22.40
2022-08-28T18:12:34.709Z,22.40
2022-08-28T18:15:03.734Z,22.40
2022-08-28T18:17:31.287Z,22.40
2022-08-28T18:20:00.685Z,22.30
2022-08-28T18:22:29.898Z,22.30
2022-08-28T18:24:57.919Z,22.30
2022-08-28T18:27:26.610Z,22.20
2022-08-28T18:29:54.477Z,22.20
2022-08-28T18:32:22.044Z,22.10
2022-08-28T18:34:49.792Z,22.10
2022-08-28T18:37:17.578Z,22.00
2022-08-28T18:39:45.134Z,22.00
2022-08-28T18:42:13.108Z,21.80
2022-08-28T18:44:40.662Z,21.70
2022-08-28T18:47:08.245Z,21.60
2022-08-28T18:49:35.828Z,21.50
2022-08-28T18:52:03.677Z,21.40
2022-08-28T18:54:31.341Z,21.30
2022-08-28T18:57:04.028Z,21.10
2022-08-28T18:59:33.280Z,21.00
2022-08-28T19:02:01.703Z,20.80
2022-08-28T19:04:29.704Z,20.70
2022-08-28T19:06:57.314Z,20.60
2022-08-28T19:09:32.140Z,20.40
2022-08-28T19:12:00.628Z,20.30
2022-08-28T19:14:28.395Z,20.20
2022-08-28T19:16:56.110Z,20.10
2022-08-28T19:19:24.200Z,20.00
2022-08-28T19:21:52.053Z,20.00
2022-08-28T19:24:22.329Z,19.90
2022-08-28T19:26:49.906Z,19.80
2022-08-28T19:29:17.624Z,19.80
2022-08-28T19:31:45.228Z,19.70
2022-08-28T19:34:13.047Z,19.70
2022-08-28T19:36:41.833Z,19.60
2022-08-28T19:39:09.477Z,19.50
2022-08-28T19:41:37.519Z,19.40
2022-08-28T19:44:05.941Z,19.40
2022-08-28T19:46:36.279Z,19.10
2022-08-28T19:49:05.884Z,19.30
2022-08-28T19:51:35.294Z,19.20
2022-08-28T19:54:03.823Z,19.10
2022-08-28T19:56:33.840Z,19.10
2022-08-28T19:59:03.589Z,19.00
2022-08-28T20:01:35.236Z,18.90
2022-08-28T20:04:04.073Z,18.90
2022-08-28T20:06:33.021Z,18.90
2022-08-28T20:09:02.457Z,18.90
2022-08-28T20:11:31.093Z,18.80
2022-08-28T20:14:04.233Z,18.80
2022-08-28T20:16:39.542Z,18.80
2022-08-28T20:19:10.483Z,18.80
2022-08-28T20:21:40.293Z,18.70
2022-08-28T20:24:17.670Z,18.70
2022-08-28T20:26:45.486Z,18.70
2022-08-28T20:29:14.097Z,18.70
2022-08-28T20:31:44.986Z,18.70
2022-08-28T20:34:12.872Z,18.70
2022-08-28T20:36:40.666Z,18.70
2022-08-28T20:39:09.631Z,18.70
2022-08-28T20:41:38.869Z,18.70
2022-08-28T20:44:08.160Z,18.80
2022-08-28T20:46:40.963Z,18.80
2022-08-28T20:49:11.415Z,18.90
2022-08-28T20:51:59.159Z,18.80
2022-08-28T20:54:38.742Z,18.80
2022-08-28T20:57:08.944Z,18.70
2022-08-28T20:59:40.214Z,18.60
2022-08-28T21:02:21.125Z,18.50
2022-08-28T21:04:49.178Z,18.50
2022-08-28T21:07:19.939Z,18.40
2022-08-28T21:10:04.208Z,18.40
2022-08-28T21:12:36.869Z,18.40
2022-08-28T21:15:09.781Z,18.30
2022-08-28T21:17:37.400Z,18.40
2022-08-28T21:20:09.329Z,18.40
2022-08-28T21:22:39.163Z,18.40
2022-08-28T21:25:08.524Z,18.40
2022-08-28T21:27:37.052Z,18.40
2022-08-28T21:30:07.158Z,18.40
2022-08-28T21:32:36.161Z,18.50
2022-08-28T21:35:08.890Z,18.60
2022-08-28T21:37:37.147Z,18.70
2022-08-28T21:40:08.164Z,18.80
2022-08-28T21:42:36.165Z,18.90
2022-08-28T21:45:11.241Z,19.00
2022-08-28T21:47:41.081Z,19.10
2022-08-28T21:50:09.366Z,19.20
2022-08-28T21:52:37.193Z,19.20
2022-08-28T21:55:09.403Z,19.30
2022-08-28T21:57:37.646Z,19.30
2022-08-28T22:00:25.567Z,19.30
2022-08-28T22:02:53.316Z,19.30
2022-08-28T22:05:21.452Z,19.30
2022-08-28T22:07:49.012Z,19.30
2022-08-28T22:10:16.607Z,19.20
2022-08-28T22:12:44.192Z,19.20
2022-08-28T22:15:12.174Z,19.10
2022-08-28T22:17:39.777Z,19.10
2022-08-28T22:20:08.087Z,19.00
2022-08-28T22:22:54.255Z,19.00
2022-08-28T22:25:22.022Z,19.00
2022-08-28T22:27:49.965Z,18.90
2022-08-28T22:30:17.824Z,18.90
2022-08-28T22:32:46.015Z,18.90
2022-08-28T22:35:13.770Z,18.90
2022-08-28T22:37:41.461Z,19.00
2022-08-28T22:40:13.699Z,19.00
2022-08-28T22:42:42.623Z,19.00
2022-08-28T22:45:10.774Z,18.90
2022-08-28T22:47:39.627Z,18.90
2022-08-28T22:50:07.502Z,18.90
2022-08-28T22:52:35.432Z,18.90
2022-08-28T22:55:04.553Z,18.90
2022-08-28T22:57:34.297Z,18.90
2022-08-28T23:00:03.934Z,18.90
2022-08-28T23:02:31.776Z,18.90
2022-08-28T23:04:59.509Z,18.90
2022-08-28T23:07:27.107Z,18.90
2022-08-28T23:09:54.673Z,18.80
2022-08-28T23:12:22.286Z,18.80
2022-08-28T23:14:50.325Z,18.80
2022-08-28T23:17:18.580Z,18.80
2022-08-28T23:19:48.200Z,18.80
2022-08-28T23:22:17.076Z,18.80
2022-08-28T23:24:46.473Z,18.70
2022-08-28T23:27:35.478Z,18.70
2022-08-28T23:30:02.084Z,18.70
2022-08-28T23:32:29.678Z,18.70
2022-08-28T23:34:57.893Z,18.70
2022-08-28T23:37:25.472Z,18.60
2022-08-28T23:39:53.086Z,18.60
2022-08-28T23:42:22.273Z,18.60
2022-08-28T23:44:50.028Z,18.60
2022-08-28T23:47:17.612Z,18.60
2022-08-28T23:49:45.880Z,18.60
2022-08-28T23:52:13.432Z,18.60
2022-08-28T23:54:41.193Z,18.60
2022-08-28T23:57:09.184Z,18.50
2022-08-28T23:59:38.756Z,18.50
